createdAt,value
2023-04-07T00:01:39.026Z,101522.59
2023-04-07T00:04:08.299Z,101527.22
2023-04-07T00:06:36.973Z,101525.59
2023-04-07T00:09:04.937Z,101518.44
2023-04-07T00:11:32.918Z,101521.75
2023-04-07T00:14:00.864Z,101533.81
2023-04-07T00:16:28.787Z,101527.63
2023-04-07T00:18:57.971Z,101532.50
2023-04-07T00:21:27.058Z,101532.25
2023-04-07T00:23:55.344Z,101524.66
2023-04-07T00:26:23.600Z,101518.19
2023-04-07T00:28:52.028Z,101514.00
2023-04-07T00:31:19.974Z,101513.28
2023-04-07T00:33:49.425Z,101523.84
2023-04-07T00:36:18.682Z,101519.06
2023-04-07T00:38:46.607Z,101520.53
2023-04-07T00:41:14.603Z,101525.31
2023-04-07T00:43:42.609Z,101523.50
2023-04-07T00:46:10.647Z,101521.66
2023-04-07T00:48:38.694Z,101518.03
2023-04-07T00:51:08.104Z,101516.00
2023-04-07T00:53:37.682Z,101512.38
2023-04-07T00:56:06.747Z,101513.53
2023-04-07T00:58:34.652Z,101512.81
2023-04-07T01:01:10.202Z,101511.06
2023-04-07T01:03:50.532Z,101507.63
2023-04-07T01:06:26.025Z,101510.78
2023-04-07T01:09:05.013Z,101497.59
2023-04-07T01:11:43.662Z,101500.34
2023-04-07T01:14:16.892Z,101493.72
2023-04-07T01:16:50.101Z,101494.56
2023-04-07T01:19:37.682Z,101489.16
2023-04-07T01:22:12.805Z,101484.59
2023-04-07T01:25:12.871Z,101478.84
2023-04-07T01:27:56.157Z,101477.34
2023-04-07T01:30:29.725Z,101483.06
2023-04-07T01:33:01.559Z,101476.88
2023-04-07T01:35:34.320Z,101472.38
2023-04-07T01:38:04.723Z,101477.97
2023-04-07T01:40:36.136Z,101478.75
2023-04-07T01:43:05.768Z,101474.75
2023-04-07T01:45:37.406Z,101480.53
2023-04-07T01:48:08.239Z,101482.56
2023-04-07T01:50:37.315Z,101485.00
2023-04-07T01:53:06.605Z,101476.78
2023-04-07T01:55:35.379Z,101481.25
2023-04-07T01:58:06.965Z,101483.72
2023-04-07T02:00:36.270Z,101476.53
2023-04-07T02:03:20.824Z,101481.75
2023-04-07T02:05:52.004Z,101486.31
2023-04-07T02:08:25.191Z,101478.63
2023-04-07T02:10:55.959Z,101479.22
2023-04-07T02:13:26.051Z,101474.66
2023-04-07T02:15:57.956Z,101475.50
2023-04-07T02:18:29.114Z,101474.44
2023-04-07T02:20:58.141Z,101469.44
2023-04-07T02:23:26.641Z,101469.53
2023-04-07T02:25:58.877Z,101465.63
2023-04-07T02:28:26.795Z,101464.03
2023-04-07T02:30:56.210Z,101459.28
2023-04-07T02:33:24.066Z,101462.13
2023-04-07T02:35:52.009Z,101461.84
2023-04-07T02:38:19.935Z,101461.78
2023-04-07T02:40:48.009Z,101461.69
2023-04-07T02:43:17.666Z,101455.88
2023-04-07T02:45:45.744Z,101457.03
2023-04-07T02:48:15.043Z,101455.75
2023-04-07T02:50:43.090Z,101452.06
2023-04-07T02:53:11.274Z,101460.34
2023-04-07T02:55:39.259Z,101453.41
2023-04-07T02:58:07.124Z,101453.19
2023-04-07T03:00:35.414Z,101459.28
2023-04-07T03:03:03.554Z,101455.09
2023-04-07T03:05:33.016Z,101457.38
2023-04-07T03:08:00.924Z,101458.72
2023-04-07T03:10:28.877Z,101449.06
2023-04-07T03:12:58.215Z,101456.47
2023-04-07T03:15:26.149Z,101459.97
2023-04-07T03:17:54.108Z,101449.63
2023-04-07T03:20:22.196Z,101453.16
2023-04-07T03:22:51.564Z,101453.25
2023-04-07T03:25:19.685Z,101451.53
2023-04-07T03:27:47.602Z,101449.47
2023-04-07T03:30:16.177Z,101444.72
2023-04-07T03:32:44.091Z,101440.16
2023-04-07T03:35:12.396Z,101439.56
2023-04-07T03:37:40.270Z,101442.41
2023-04-07T03:40:10.833Z,101439.28
2023-04-07T03:42:38.787Z,101433.97
2023-04-07T03:45:08.390Z,101439.09
2023-04-07T03:47:36.497Z,101438.94
2023-04-07T03:50:04.784Z,101433.78
2023-04-07T03:52:32.626Z,101435.31
2023-04-07T03:55:00.548Z,101440.94
2023-04-07T03:57:29.896Z,101437.31
2023-04-07T03:59:57.826Z,101434.84
2023-04-07T04:02:25.965Z,101429.13
2023-04-07T04:04:53.982Z,101434.25
2023-04-07T04:07:21.984Z,101439.75
2023-04-07T04:09:49.858Z,101436.34
2023-04-07T04:12:17.734Z,101435.31
2023-04-07T04:14:47.005Z,101438.44
2023-04-07T04:17:15.026Z,101440.53
2023-04-07T04:19:43.008Z,101437.88
2023-04-07T04:22:11.535Z,101436.06
2023-04-07T04:24:39.431Z,101446.03
2023-04-07T04:27:07.362Z,101442.81
2023-04-07T04:29:36.002Z,101448.38
2023-04-07T04:32:05.725Z,101444.50
2023-04-07T04:34:34.317Z,101442.03
2023-04-07T04:37:02.205Z,101436.34
2023-04-07T04:39:30.096Z,101445.66
2023-04-07T04:41:58.065Z,101442.13
2023-04-07T04:44:26.270Z,101446.41
2023-04-07T04:46:54.435Z,101438.44
2023-04-07T04:49:24.071Z,101438.72
2023-04-07T04:51:51.998Z,101440.59
2023-04-07T04:54:20.796Z,101449.53
2023-04-07T04:56:48.864Z,101451.06
2023-04-07T04:59:16.773Z,101450.00
2023-04-07T05:01:44.787Z,101448.88
2023-04-07T05:04:13.071Z,101452.47
2023-04-07T05:06:42.466Z,101451.16
2023-04-07T05:09:10.309Z,101445.94
2023-04-07T05:11:38.240Z,101456.84
2023-04-07T05:14:06.135Z,101457.69
2023-04-07T05:16:34.161Z,101449.06
2023-04-07T05:19:02.132Z,101459.31
2023-04-07T05:21:30.690Z,101463.00
2023-04-07T05:23:59.999Z,101461.78
2023-04-07T05:26:28.195Z,101455.88
2023-04-07T05:28:56.138Z,101464.25
2023-04-07T05:31:24.156Z,101463.28
2023-04-07T05:33:52.693Z,101458.25
2023-04-07T05:36:20.916Z,101455.38
2023-04-07T05:38:48.871Z,101458.41
2023-04-07T05:41:18.194Z,101457.63
2023-04-07T05:43:46.113Z,101448.75
2023-04-07T05:46:14.216Z,101453.97
2023-04-07T05:48:42.300Z,101455.78
2023-04-07T05:51:10.324Z,101453.81
2023-04-07T05:53:38.226Z,101454.84
2023-04-07T05:56:07.136Z,101456.16
2023-04-07T05:58:36.607Z,101458.22
2023-04-07T06:01:04.464Z,101462.47
2023-04-07T06:03:32.609Z,101456.47
2023-04-07T06:06:00.835Z,101461.00
2023-04-07T06:08:28.744Z,101460.25
2023-04-07T06:10:56.689Z,101458.66
2023-04-07T06:13:24.675Z,101459.47
2023-04-07T06:15:56.292Z,101464.63
2023-04-07T06:18:24.549Z,101462.50
2023-04-07T06:20:52.511Z,101464.06
2023-04-07T06:23:20.511Z,101470.91
2023-04-07T06:25:51.795Z,101473.78
2023-04-07T06:28:20.312Z,101470.06
2023-04-07T06:30:48.389Z,101474.94
2023-04-07T06:33:18.697Z,101470.25
2023-04-07T06:35:46.778Z,101472.41
2023-04-07T06:38:14.794Z,101474.25
2023-04-07T06:40:42.828Z,101477.09
2023-04-07T06:43:11.041Z,101474.66
2023-04-07T06:45:39.019Z,101480.28
2023-04-07T06:48:08.081Z,101476.94
2023-04-07T06:50:37.694Z,101467.66
2023-04-07T06:53:05.972Z,101472.59
2023-04-07T06:55:36.356Z,101472.94
2023-04-07T06:58:04.385Z,101469.06
2023-04-07T07:00:32.370Z,101476.63
2023-04-07T07:03:00.542Z,101474.94
2023-04-07T07:05:28.741Z,101482.50
2023-04-07T07:07:58.021Z,101483.47
2023-04-07T07:10:25.943Z,101479.06
2023-04-07T07:12:53.910Z,101478.44
2023-04-07T07:15:21.888Z,101478.50
2023-04-07T07:17:49.869Z,101481.53
2023-04-07T07:20:18.182Z,101481.41
2023-04-07T07:22:46.214Z,101483.47
2023-04-07T07:25:15.654Z,101481.78
2023-04-07T07:27:43.628Z,101487.16
2023-04-07T07:30:12.588Z,101486.25
2023-04-07T07:32:40.561Z,101488.00
2023-04-07T07:35:09.405Z,101488.78
2023-04-07T07:37:37.383Z,101488.78
2023-04-07T07:40:06.304Z,101494.41
2023-04-07T07:42:35.602Z,101496.25
2023-04-07T07:45:04.149Z,101495.53
2023-04-07T07:47:32.221Z,101497.72
2023-04-07T07:50:00.668Z,101498.63
2023-04-07T07:52:28.642Z,101503.28
2023-04-07T07:54:56.666Z,101503.44
2023-04-07T07:57:24.654Z,101502.44
2023-04-07T07:59:54.510Z,101503.63
2023-04-07T08:02:22.588Z,101502.19
2023-04-07T08:04:50.652Z,101507.28
2023-04-07T08:07:18.634Z,101506.06
2023-04-07T08:09:46.576Z,101504.59
2023-04-07T08:12:14.618Z,101510.06
2023-04-07T08:14:42.903Z,101504.13
2023-04-07T08:17:12.560Z,101505.34
2023-04-07T08:19:40.704Z,101505.22
2023-04-07T08:22:08.677Z,101508.28
2023-04-07T08:24:36.602Z,101506.81
2023-04-07T08:27:04.603Z,101516.91
2023-04-07T08:29:32.879Z,101518.25
2023-04-07T08:32:00.884Z,101518.25
2023-04-07T08:34:30.602Z,101509.75
2023-04-07T08:36:58.354Z,101511.03
2023-04-07T08:39:26.657Z,101506.72
2023-04-07T08:41:57.008Z,101513.78
2023-04-07T08:44:27.896Z,101509.38
2023-04-07T08:47:00.664Z,101513.16
2023-04-07T08:49:34.148Z,101516.06
2023-04-07T08:52:11.471Z,101520.50
2023-04-07T08:54:39.823Z,101523.69
2023-04-07T08:57:09.920Z,101513.47
2023-04-07T08:59:41.140Z,101517.03
2023-04-07T09:02:09.964Z,101515.50
2023-04-07T09:04:39.315Z,101515.06
2023-04-07T09:07:07.252Z,101526.91
2023-04-07T09:09:35.687Z,101531.06
2023-04-07T09:12:03.705Z,101533.88
2023-04-07T09:14:31.717Z,101533.03
2023-04-07T09:17:00.286Z,101539.13
2023-04-07T09:19:30.793Z,101543.72
2023-04-07T09:22:00.278Z,101539.13
2023-04-07T09:24:31.846Z,101536.09
2023-04-07T09:27:17.806Z,101526.25
2023-04-07T09:29:47.908Z,101536.31
2023-04-07T09:32:38.725Z,101526.19
2023-04-07T09:35:08.094Z,101523.09
2023-04-07T09:37:37.605Z,101533.56
2023-04-07T09:40:07.018Z,101535.28
2023-04-07T09:42:36.834Z,101529.22
2023-04-07T09:45:05.559Z,101536.66
2023-04-07T09:47:34.094Z,101538.94
2023-04-07T09:50:06.997Z,101541.63
2023-04-07T09:52:53.927Z,101536.63
2023-04-07T09:55:24.148Z,101540.41
2023-04-07T09:57:52.698Z,101533.56
2023-04-07T10:00:20.847Z,101538.69
2023-04-07T10:02:51.194Z,101533.34
2023-04-07T10:05:21.077Z,101541.97
2023-04-07T10:07:49.496Z,101540.03
2023-04-07T10:10:18.846Z,101543.78
2023-04-07T10:12:48.349Z,101545.25
2023-04-07T10:15:17.179Z,101535.63
2023-04-07T10:17:49.106Z,101536.22
2023-04-07T10:20:20.809Z,101531.06
2023-04-07T10:22:52.029Z,101536.09
2023-04-07T10:25:25.170Z,101537.31
2023-04-07T10:28:00.377Z,101543.31
2023-04-07T10:30:32.119Z,101538.69
2023-04-07T10:33:00.490Z,101546.38
2023-04-07T10:35:29.948Z,101538.59
2023-04-07T10:38:15.185Z,101542.84
2023-04-07T10:40:44.796Z,101542.25
2023-04-07T10:43:13.684Z,101539.91
2023-04-07T10:45:59.349Z,101538.94
2023-04-07T10:48:32.856Z,101539.41
2023-04-07T10:51:17.729Z,101544.53
2023-04-07T10:54:20.550Z,101540.91
2023-04-07T10:57:24.203Z,101538.47
2023-04-07T11:00:17.671Z,101538.56
2023-04-07T11:02:45.895Z,101535.31
2023-04-07T11:05:24.160Z,101539.66
2023-04-07T11:08:02.590Z,101538.09
2023-04-07T11:10:30.534Z,101541.97
2023-04-07T11:13:06.800Z,101531.88
2023-04-07T11:15:39.351Z,101531.75
2023-04-07T11:18:17.990Z,101538.91
2023-04-07T11:20:49.902Z,101537.50
2023-04-07T11:23:19.522Z,101539.19
2023-04-07T11:25:49.359Z,101526.63
2023-04-07T11:28:19.112Z,101534.69
2023-04-07T11:30:51.790Z,101536.25
2023-04-07T11:33:22.075Z,101531.16
2023-04-07T11:35:56.738Z,101534.06
2023-04-07T11:38:28.232Z,101522.69
2023-04-07T11:40:57.514Z,101531.03
2023-04-07T11:43:29.686Z,101531.06
2023-04-07T11:46:12.452Z,101534.25
2023-04-07T11:48:43.473Z,101526.84
2023-04-07T11:51:19.046Z,101522.94
2023-04-07T11:53:48.470Z,101528.91
2023-04-07T11:56:18.715Z,101519.59
2023-04-07T11:58:53.693Z,101529.28
2023-04-07T12:01:24.669Z,101526.06
2023-04-07T12:04:02.195Z,101524.69
2023-04-07T12:06:34.734Z,101524.63
2023-04-07T12:09:03.480Z,101531.31
2023-04-07T12:11:32.748Z,101532.81
2023-04-07T12:14:04.897Z,101531.13
2023-04-07T12:16:32.852Z,101537.47
2023-04-07T12:19:01.010Z,101531.34
2023-04-07T12:21:29.016Z,101529.44
2023-04-07T12:23:57.080Z,101522.38
2023-04-07T12:26:25.410Z,101525.22
2023-04-07T12:28:53.632Z,101523.44
2023-04-07T12:31:23.083Z,101521.69
2023-04-07T12:33:51.395Z,101519.22
2023-04-07T12:36:19.489Z,101521.53
2023-04-07T12:38:47.446Z,101524.19
2023-04-07T12:41:15.582Z,101523.19
2023-04-07T12:43:45.050Z,101520.06
2023-04-07T12:46:14.996Z,101511.13
2023-04-07T12:48:45.836Z,101523.00
2023-04-07T12:51:14.067Z,101515.03
2023-04-07T12:53:41.979Z,101522.31
2023-04-07T12:56:10.022Z,101518.91
2023-04-07T12:58:38.066Z,101521.00
2023-04-07T13:01:06.256Z,101526.16
2023-04-07T13:03:34.396Z,101519.13
2023-04-07T13:06:04.553Z,101520.97
2023-04-07T13:08:32.627Z,101525.59
2023-04-07T13:11:00.601Z,101519.88
2023-04-07T13:13:28.845Z,101512.44
2023-04-07T13:15:56.990Z,101513.06
2023-04-07T13:18:25.007Z,101512.84
2023-04-07T13:21:16.571Z,101513.69
2023-04-07T13:23:43.832Z,101514.44
2023-04-07T13:26:12.334Z,101520.25
2023-04-07T13:28:40.433Z,101514.59
2023-04-07T13:31:09.355Z,101514.34
2023-04-07T13:33:37.737Z,101511.47
2023-04-07T13:36:05.758Z,101517.78
2023-04-07T13:38:33.828Z,101509.75
2023-04-07T13:41:04.711Z,101515.84
2023-04-07T13:43:32.602Z,101516.56
2023-04-07T13:46:00.645Z,101510.72
2023-04-07T13:48:28.626Z,101517.78
2023-04-07T13:50:56.577Z,101507.94
2023-04-07T13:53:24.853Z,101507.94
2023-04-07T13:55:52.806Z,101507.25
2023-04-07T13:58:22.193Z,101508.22
2023-04-07T14:00:50.157Z,101503.84
2023-04-07T14:03:18.189Z,101502.94
2023-04-07T14:05:46.185Z,101490.06
2023-04-07T14:08:14.156Z,101495.16
2023-04-07T14:10:42.123Z,101497.63
2023-04-07T14:13:10.028Z,101493.34
2023-04-07T14:15:39.603Z,101497.56
2023-04-07T14:18:07.451Z,101491.34
2023-04-07T14:20:35.404Z,101491.72
2023-04-07T14:23:03.411Z,101490.72
2023-04-07T14:25:31.383Z,101496.19
2023-04-07T14:27:59.307Z,101499.94
2023-04-07T14:30:27.404Z,101496.78
2023-04-07T14:32:56.783Z,101496.53
2023-04-07T14:35:24.908Z,101509.19
2023-04-07T14:37:55.482Z,101499.25
2023-04-07T14:40:23.445Z,101494.63
2023-04-07T14:43:06.482Z,101497.78
2023-04-07T14:45:36.260Z,101499.28
2023-04-07T14:48:06.368Z,101496.94
2023-04-07T14:50:34.509Z,101496.31
2023-04-07T14:53:03.395Z,101501.34
2023-04-07T14:55:31.893Z,101501.09
2023-04-07T14:57:59.806Z,101501.59
2023-04-07T15:00:28.766Z,101501.09
2023-04-07T15:02:57.331Z,101493.72
2023-04-07T15:05:28.683Z,101501.47
2023-04-07T15:07:57.044Z,101499.88
2023-04-07T15:10:25.221Z,101501.72
2023-04-07T15:12:53.143Z,101505.09
2023-04-07T15:15:21.902Z,101499.06
2023-04-07T15:17:49.861Z,101496.88
2023-04-07T15:20:17.781Z,101506.50
2023-04-07T15:22:47.419Z,101507.56
2023-04-07T15:25:15.225Z,101496.69
2023-04-07T15:27:43.215Z,101500.75
2023-04-07T15:30:12.265Z,101498.03
2023-04-07T15:32:40.225Z,101498.81
2023-04-07T15:35:09.365Z,101510.13
2023-04-07T15:37:38.437Z,101505.59
2023-04-07T15:40:09.865Z,101499.91
2023-04-07T15:42:41.728Z,101501.59
2023-04-07T15:45:11.329Z,101500.50
2023-04-07T15:47:39.340Z,101494.38
2023-04-07T15:50:09.458Z,101489.50
2023-04-07T15:52:37.616Z,101497.03
2023-04-07T15:55:07.824Z,101499.31
2023-04-07T15:57:35.817Z,101500.19
2023-04-07T16:00:04.598Z,101507.00
2023-04-07T16:02:32.786Z,101491.06
2023-04-07T16:05:00.834Z,101499.19
2023-04-07T16:07:28.737Z,101488.63
2023-04-07T16:09:56.873Z,101498.69
2023-04-07T16:12:26.349Z,101506.38
2023-04-07T16:14:54.414Z,101506.25
2023-04-07T16:17:30.438Z,101505.47
2023-04-07T16:19:58.341Z,101504.28
2023-04-07T16:22:27.084Z,101508.56
2023-04-07T16:24:55.253Z,101510.25
2023-04-07T16:27:23.169Z,101504.78
2023-04-07T16:29:52.516Z,101511.78
2023-04-07T16:32:20.451Z,101508.16
2023-04-07T16:34:49.281Z,101508.66
2023-04-07T16:37:17.253Z,101512.28
2023-04-07T16:39:45.195Z,101516.59
2023-04-07T16:42:13.200Z,101511.13
2023-04-07T16:44:41.139Z,101509.88
2023-04-07T16:47:10.551Z,101513.56
2023-04-07T16:49:39.044Z,101514.66
2023-04-07T16:52:06.968Z,101509.56
2023-04-07T16:54:35.969Z,101515.47
2023-04-07T16:57:04.226Z,101514.25
2023-04-07T16:59:34.090Z,101514.22
2023-04-07T17:02:11.317Z,101513.00
2023-04-07T17:04:39.991Z,101511.44
2023-04-07T17:07:08.336Z,101518.53
2023-04-07T17:09:36.934Z,101524.88
2023-04-07T17:12:05.830Z,101516.84
2023-04-07T17:14:34.252Z,101526.91
2023-04-07T17:17:02.810Z,101529.09
2023-04-07T17:19:32.097Z,101526.06
2023-04-07T17:22:00.128Z,101524.19
2023-04-07T17:24:28.138Z,101528.84
2023-04-07T17:26:56.153Z,101522.56
2023-04-07T17:29:28.768Z,101530.28
2023-04-07T17:32:05.307Z,101527.72
2023-04-07T17:34:34.783Z,101526.97
2023-04-07T17:37:02.880Z,101539.66
2023-04-07T17:39:31.013Z,101541.72
2023-04-07T17:41:58.993Z,101540.97
2023-04-07T17:44:27.164Z,101538.91
2023-04-07T17:46:55.370Z,101548.72
2023-04-07T17:49:24.513Z,101544.69
2023-04-07T17:51:53.979Z,101554.69
2023-04-07T17:54:22.015Z,101560.91
2023-04-07T17:56:50.218Z,101553.34
2023-04-07T17:59:18.171Z,101555.56
2023-04-07T18:01:46.111Z,101554.31
2023-04-07T18:04:14.983Z,101555.50
2023-04-07T18:06:43.820Z,101562.59
2023-04-07T18:09:13.553Z,101558.84
2023-04-07T18:11:41.477Z,101557.72
2023-04-07T18:14:09.416Z,101562.31
2023-04-07T18:16:37.407Z,101564.88
2023-04-07T18:19:05.405Z,101573.75
2023-04-07T18:21:35.023Z,101576.44
2023-04-07T18:24:02.873Z,101573.41
2023-04-07T18:26:32.406Z,101566.81
2023-04-07T18:29:00.313Z,101572.94
2023-04-07T18:31:28.311Z,101572.50
2023-04-07T18:33:56.318Z,101568.75
2023-04-07T18:36:27.051Z,101568.84
2023-04-07T18:38:55.026Z,101577.75
2023-04-07T18:41:23.100Z,101578.81
2023-04-07T18:43:52.586Z,101583.41
2023-04-07T18:46:20.720Z,101581.03
2023-04-07T18:48:48.685Z,101586.38
2023-04-07T18:51:16.841Z,101590.84
2023-04-07T18:53:44.785Z,101591.25
2023-04-07T18:56:12.768Z,101592.75
2023-04-07T18:58:44.738Z,101593.53
2023-04-07T19:01:14.454Z,101599.13
2023-04-07T19:03:42.917Z,101610.44
2023-04-07T19:06:14.720Z,101603.88
2023-04-07T19:08:43.013Z,101600.53
2023-04-07T19:11:11.112Z,101609.53
2023-04-07T19:13:39.037Z,101612.00
2023-04-07T19:16:07.602Z,101611.34
2023-04-07T19:18:37.418Z,101615.03
2023-04-07T19:21:05.220Z,101614.69
2023-04-07T19:23:33.123Z,101614.91
2023-04-07T19:26:01.568Z,101611.78
2023-04-07T19:28:29.598Z,101613.22
2023-04-07T19:30:57.748Z,101617.00
2023-04-07T19:33:25.824Z,101611.59
2023-04-07T19:35:55.168Z,101619.47
2023-04-07T19:38:23.078Z,101625.44
2023-04-07T19:40:51.304Z,101627.13
2023-04-07T19:43:20.079Z,101624.41
2023-04-07T19:45:49.227Z,101629.75
2023-04-07T19:48:19.034Z,101624.94
2023-04-07T19:50:49.629Z,101617.00
2023-04-07T19:53:19.030Z,101624.00
2023-04-07T19:55:47.900Z,101619.50
2023-04-07T19:58:18.786Z,101626.09
2023-04-07T20:00:49.644Z,101616.56
2023-04-07T20:03:18.158Z,101619.22
2023-04-07T20:05:46.241Z,101618.09
2023-04-07T20:08:14.244Z,101623.84
2023-04-07T20:10:43.584Z,101620.25
2023-04-07T20:13:11.576Z,101615.97
2023-04-07T20:15:39.819Z,101620.91
2023-04-07T20:18:07.792Z,101615.81
2023-04-07T20:20:36.838Z,101627.34
2023-04-07T20:23:04.901Z,101616.84
2023-04-07T20:25:32.872Z,101608.47
2023-04-07T20:28:02.206Z,101612.75
2023-04-07T20:30:30.397Z,101608.81
2023-04-07T20:32:58.383Z,101610.31
2023-04-07T20:35:26.590Z,101608.81
2023-04-07T20:37:54.611Z,101608.47
2023-04-07T20:40:22.583Z,101616.31
2023-04-07T20:42:50.633Z,101617.00
2023-04-07T20:45:20.546Z,101614.91
2023-04-07T20:47:48.616Z,101625.13
2023-04-07T20:50:16.981Z,101624.47
2023-04-07T20:52:44.846Z,101623.44
2023-04-07T20:55:13.011Z,101624.69
2023-04-07T20:57:40.984Z,101617.47
2023-04-07T21:00:10.522Z,101626.88
2023-04-07T21:02:40.096Z,101633.91
2023-04-07T21:05:08.442Z,101629.84
2023-04-07T21:07:36.405Z,101623.28
2023-04-07T21:10:04.793Z,101621.44
2023-04-07T21:12:32.920Z,101622.63
2023-04-07T21:15:02.372Z,101622.81
2023-04-07T21:17:30.373Z,101625.59
2023-04-07T21:19:59.752Z,101628.41
2023-04-07T21:22:28.024Z,101626.63
2023-04-07T21:24:57.354Z,101626.66
2023-04-07T21:27:25.588Z,101625.72
2023-04-07T21:29:53.486Z,101627.59
2023-04-07T21:32:22.093Z,101625.31
2023-04-07T21:34:53.414Z,101619.50
2023-04-07T21:37:23.511Z,101623.91
2023-04-07T21:39:54.392Z,101632.94
2023-04-07T21:42:22.664Z,101632.13
2023-04-07T21:44:50.767Z,101627.09
2023-04-07T21:47:18.783Z,101632.63
2023-04-07T21:49:47.193Z,101629.25
2023-04-07T21:52:17.292Z,101625.59
2023-04-07T21:54:46.637Z,101633.09
2023-04-07T21:57:14.587Z,101620.91
2023-04-07T21:59:42.561Z,101624.63
2023-04-07T22:02:10.914Z,101617.69
2023-04-07T22:04:39.031Z,101621.94
2023-04-07T22:07:06.986Z,101611.38
2023-04-07T22:09:34.992Z,101619.38
2023-04-07T22:12:04.516Z,101618.75
2023-04-07T22:14:32.480Z,101616.84
2023-04-07T22:17:00.555Z,101615.56
2023-04-07T22:19:28.491Z,101612.59
2023-04-07T22:21:56.510Z,101626.22
2023-04-07T22:24:24.462Z,101625.81
2023-04-07T22:26:53.856Z,101624.09
2023-04-07T22:29:23.212Z,101634.88
2023-04-07T22:31:51.331Z,101617.94
2023-04-07T22:34:19.685Z,101619.06
2023-04-07T22:36:47.698Z,101610.53
2023-04-07T22:39:15.664Z,101606.91
2023-04-07T22:41:43.573Z,101614.28
2023-04-07T22:44:11.563Z,101611.25
2023-04-07T22:46:41.024Z,101616.22
2023-04-07T22:49:08.991Z,101613.72
2023-04-07T22:51:37.425Z,101611.06
2023-04-07T22:54:05.592Z,101616.59
2023-04-07T22:56:33.563Z,101628.16
2023-04-07T22:59:05.403Z,101619.28
2023-04-07T23:01:33.985Z,101621.84
2023-04-07T23:04:03.405Z,101622.91
2023-04-07T23:06:32.088Z,101623.03
2023-04-07T23:09:00.355Z,101626.84
2023-04-07T23:11:28.313Z,101628.44
2023-04-07T23:13:56.355Z,101644.56
2023-04-07T23:16:24.439Z,101638.84
2023-04-07T23:18:52.403Z,101641.91
2023-04-07T23:21:21.745Z,101642.88
2023-04-07T23:23:50.536Z,101628.03
2023-04-07T23:26:18.457Z,101638.22
2023-04-07T23:28:47.965Z,101639.69
2023-04-07T23:31:17.304Z,101627.53
2023-04-07T23:33:45.276Z,101626.56
2023-04-07T23:36:13.310Z,101628.03
2023-04-07T23:38:42.900Z,101623.31
2023-04-07T23:41:10.658Z,101631.97
2023-04-07T23:43:38.698Z,101625.75
2023-04-07T23:46:06.961Z,101615.56
2023-04-07T23:48:35.497Z,101619.50
2023-04-07T23:51:03.491Z,101620.28
2023-04-07T23:53:31.494Z,101621.50
2023-04-07T23:56:01.149Z,101625.75
2023-04-07T23:58:28.949Z,101627.81
